Airfield :
LOGIN :

Register | Disclaimer

   EN    FR    IT 

 










Legend :    VFR   Marginal VFR   IFR   Intensive IFR   Very Intensive IFR
Visi :
Ceiling :
>= 8 km
>= 3000ft
5 to 8 km
1000 to 3000 ft
1500m to 5 km
500 to 1000 ft
800 to 1500m
200 to 500 ft
< 800m
< 200 ft
Symbols :   Thunderstorms  Fog  Heavy snow  Heavy precipitations  Wind > 20 kt
SIGMETs :     Misc.  Thunderstorms  Icing  Turbulence  Mountain Waves  Volcanic Ashes






- Airport Elevation : 245 ft
- IATA code : BIQ


LFBZ - Biarritz

CURRENT METAR :
  • 232300Z AUTO 26011KT 220V280 6000 -RA FEW009/// BKN049/// BKN060/// ///TCU 13/12 Q1009 TEMPO 24020G35KT 4000 RA OVC012

EXPIRED METARs :
  • 232230Z AUTO 25015G27KT 200V280 5000 RA BR SCT013/// BKN054/// BKN068/// ///TCU 13/12 Q1009 BECMG 24010KT NSW BKN020
  • 232200Z AUTO 24010G21KT 200V280 9999 FEW014/// SCT019/// BKN066/// ///CB 14/12 Q1008 BECMG BKN020
  • 232130Z AUTO 25011KT 210V280 9999 SCT019/// BKN050/// OVC060/// ///TCU 14/11 Q1008 BECMG BKN020
  • 232100Z AUTO 25010KT 210V280 9999 BKN017 BKN044 BKN056 15/12 Q1008 NOSIG
  • 232030Z AUTO 25012G27KT 150V290 9999 BKN016 BKN022 BKN028 15/12 Q1007 NOSIG

TAF AMD TAF LFBZ
Valid from the 23 at 22:00 until the 24 at 18:00 UTC


232241Z 2322/2418 24010KT 5000 -RA BKN020
TEMPO 2322/2408 24020G35KT 4000 RA OVC012
BECMG 2410/2412 9999 NSW BKN040



MET'MAP, your aeronautical weather chart ! - Copyright ORBIFLY December 2007 - Disclaimer

ORBIFLY MET'MAP TEAM :

Programming & Development : Alexandra Zaïnal
Concept & Development : Baudouin d'Aumeries
Co-Development & Prog : Marc-Olivier Méhu
Technical & hardware support : Manuel Goepfert

Contact : metmap@orbifly.com




SOURCES & CREDITS :

   NOAA